sensor_id;sensor_type;location;lat;lon;timestamp;P1;durP1;ratioP1;P2;durP2;ratioP2
9799;SDS011;4939;52.00085300;4.17406100;2022-08-19T00:00:16;13.80;;;7.68;;
9799;SDS011;4939;52.00085300;4.17406100;2022-08-19T00:02:44;15.43;;;7.47;;
9799;SDS011;4939;52.00085300;4.17406100;2022-08-19T00:05:11;18.73;;;9.10;;
9799;SDS011;4939;52.00085300;4.17406100;2022-08-19T00:07:38;18.85;;;9.05;;
9799;SDS011;4939;52.00085300;4.17406100;2022-08-19T00:10:05;15.95;;;8.70;;
9799;SDS011;4939;52.00085300;4.17406100;2022-08-19T00:12:31;16.95;;;9.20;;
9799;SDS011;4939;52.00085300;4.17406100;2022-08-19T00:14:57;18.98;;;9.27;;
9799;SDS011;4939;52.00085300;4.17406100;2022-08-19T00:17:23;24.17;;;9.73;;
9799;SDS011;4939;52.00085300;4.17406100;2022-08-19T00:19:49;17.27;;;10.60;;
9799;SDS011;4939;52.00085300;4.17406100;2022-08-19T00:22:16;21.60;;;11.52;;
9799;SDS011;4939;52.00085300;4.17406100;2022-08-19T00:24:46;20.25;;;11.30;;
9799;SDS011;4939;52.00085300;4.17406100;2022-08-19T00:27:13;21.23;;;12.52;;
9799;SDS011;4939;52.00085300;4.17406100;2022-08-19T00:29:40;18.20;;;11.57;;
9799;SDS011;4939;52.00085300;4.17406100;2022-08-19T00:32:06;21.05;;;12.43;;
9799;SDS011;4939;52.00085300;4.17406100;2022-08-19T00:34:32;24.15;;;12.75;;
9799;SDS011;4939;52.00085300;4.17406100;2022-08-19T00:36:58;20.50;;;11.85;;
9799;SDS011;4939;52.00085300;4.17406100;2022-08-19T00:39:25;21.98;;;12.82;;
9799;SDS011;4939;52.00085300;4.17406100;2022-08-19T00:41:51;24.27;;;13.48;;
9799;SDS011;4939;52.00085300;4.17406100;2022-08-19T00:44:24;22.92;;;13.45;;
9799;SDS011;4939;52.00085300;4.17406100;2022-08-19T00:46:51;21.42;;;13.27;;
9799;SDS011;4939;52.00085300;4.17406100;2022-08-19T00:51:53;28.35;;;13.60;;
9799;SDS011;4939;52.00085300;4.17406100;2022-08-19T00:54:20;23.08;;;14.18;;
9799;SDS011;4939;52.00085300;4.17406100;2022-08-19T00:56:47;24.42;;;14.43;;
9799;SDS011;4939;52.00085300;4.17406100;2022-08-19T00:59:13;29.10;;;13.88;;
9799;SDS011;4939;52.00085300;4.17406100;2022-08-19T01:01:41;29.75;;;16.08;;
9799;SDS011;4939;52.00085300;4.17406100;2022-08-19T01:04:08;30.05;;;17.08;;
9799;SDS011;4939;52.00085300;4.17406100;2022-08-19T01:06:35;32.00;;;18.20;;
9799;SDS011;4939;52.00085300;4.17406100;2022-08-19T01:09:02;29.70;;;17.85;;
9799;SDS011;4939;52.00085300;4.17406100;2022-08-19T01:11:28;31.48;;;17.92;;
9799;SDS011;4939;52.00085300;4.17406100;2022-08-19T01:13:56;35.80;;;19.88;;
9799;SDS011;4939;52.00085300;4.17406100;2022-08-19T01:16:23;36.95;;;19.00;;
9799;SDS011;4939;52.00085300;4.17406100;2022-08-19T01:18:51;36.38;;;19.50;;
9799;SDS011;4939;52.00085300;4.17406100;2022-08-19T01:21:26;41.97;;;22.10;;
9799;SDS011;4939;52.00085300;4.17406100;2022-08-19T01:23:56;44.63;;;22.33;;
9799;SDS011;4939;52.00085300;4.17406100;2022-08-19T01:26:23;43.13;;;23.23;;
9799;SDS011;4939;52.00085300;4.17406100;2022-08-19T01:28:51;42.78;;;22.77;;
9799;SDS011;4939;52.00085300;4.17406100;2022-08-19T01:31:19;44.85;;;22.98;;
9799;SDS011;4939;52.00085300;4.17406100;2022-08-19T01:33:47;48.13;;;24.27;;
9799;SDS011;4939;52.00085300;4.17406100;2022-08-19T01:36:15;47.08;;;25.73;;
9799;SDS011;4939;52.00085300;4.17406100;2022-08-19T01:38:43;54.10;;;23.70;;
9799;SDS011;4939;52.00085300;4.17406100;2022-08-19T01:41:11;44.65;;;23.20;;
9799;SDS011;4939;52.00085300;4.17406100;2022-08-19T01:43:38;43.83;;;23.15;;
9799;SDS011;4939;52.00085300;4.17406100;2022-08-19T01:46:08;46.80;;;22.00;;
9799;SDS011;4939;52.00085300;4.17406100;2022-08-19T01:48:39;50.72;;;23.55;;
9799;SDS011;4939;52.00085300;4.17406100;2022-08-19T01:51:07;48.35;;;22.25;;
9799;SDS011;4939;52.00085300;4.17406100;2022-08-19T01:53:33;50.53;;;24.58;;
9799;SDS011;4939;52.00085300;4.17406100;2022-08-19T01:55:59;53.58;;;24.27;;
9799;SDS011;4939;52.00085300;4.17406100;2022-08-19T01:58:27;49.25;;;24.40;;
9799;SDS011;4939;52.00085300;4.17406100;2022-08-19T02:00:55;49.80;;;24.15;;
9799;SDS011;4939;52.00085300;4.17406100;2022-08-19T02:03:23;51.10;;;23.58;;
9799;SDS011;4939;52.00085300;4.17406100;2022-08-19T02:05:53;48.83;;;23.08;;
9799;SDS011;4939;52.00085300;4.17406100;2022-08-19T02:08:20;47.08;;;22.50;;
9799;SDS011;4939;52.00085300;4.17406100;2022-08-19T02:10:48;44.03;;;22.75;;
9799;SDS011;4939;52.00085300;4.17406100;2022-08-19T02:13:15;45.00;;;20.83;;
9799;SDS011;4939;52.00085300;4.17406100;2022-08-19T02:15:46;47.53;;;19.40;;
9799;SDS011;4939;52.00085300;4.17406100;2022-08-19T02:18:13;41.05;;;19.63;;
9799;SDS011;4939;52.00085300;4.17406100;2022-08-19T02:20:40;39.67;;;19.27;;
9799;SDS011;4939;52.00085300;4.17406100;2022-08-19T02:23:08;47.38;;;19.58;;
9799;SDS011;4939;52.00085300;4.17406100;2022-08-19T02:25:35;42.50;;;18.65;;
9799;SDS011;4939;52.00085300;4.17406100;2022-08-19T02:28:01;44.25;;;19.25;;
9799;SDS011;4939;52.00085300;4.17406100;2022-08-19T02:30:27;38.63;;;18.90;;
9799;SDS011;4939;52.00085300;4.17406100;2022-08-19T02:32:53;33.33;;;17.33;;
9799;SDS011;4939;52.00085300;4.17406100;2022-08-19T02:35:19;40.10;;;18.05;;
9799;SDS011;4939;52.00085300;4.17406100;2022-08-19T02:37:46;40.17;;;17.77;;
9799;SDS011;4939;52.00085300;4.17406100;2022-08-19T02:40:31;37.38;;;17.42;;
9799;SDS011;4939;52.00085300;4.17406100;2022-08-19T02:43:04;35.72;;;18.05;;
9799;SDS011;4939;52.00085300;4.17406100;2022-08-19T02:45:36;41.92;;;19.42;;
9799;SDS011;4939;52.00085300;4.17406100;2022-08-19T02:48:02;39.78;;;19.92;;
9799;SDS011;4939;52.00085300;4.17406100;2022-08-19T02:50:29;42.63;;;20.02;;
9799;SDS011;4939;52.00085300;4.17406100;2022-08-19T02:52:55;41.38;;;19.13;;
9799;SDS011;4939;52.00085300;4.17406100;2022-08-19T02:55:21;49.00;;;21.10;;
9799;SDS011;4939;52.00085300;4.17406100;2022-08-19T02:57:47;43.72;;;19.85;;
9799;SDS011;4939;52.00085300;4.17406100;2022-08-19T03:00:14;50.05;;;19.50;;
9799;SDS011;4939;52.00085300;4.17406100;2022-08-19T03:02:40;44.70;;;21.58;;
9799;SDS011;4939;52.00085300;4.17406100;2022-08-19T03:05:07;44.05;;;18.98;;
9799;SDS011;4939;52.00085300;4.17406100;2022-08-19T03:07:34;43.78;;;20.33;;
9799;SDS011;4939;52.00085300;4.17406100;2022-08-19T03:10:01;45.53;;;21.60;;
9799;SDS011;4939;52.00085300;4.17406100;2022-08-19T03:12:27;50.97;;;21.77;;
9799;SDS011;4939;52.00085300;4.17406100;2022-08-19T03:14:53;53.55;;;22.80;;
9799;SDS011;4939;52.00085300;4.17406100;2022-08-19T03:17:19;54.55;;;24.38;;
9799;SDS011;4939;52.00085300;4.17406100;2022-08-19T03:19:46;52.88;;;23.10;;
9799;SDS011;4939;52.00085300;4.17406100;2022-08-19T03:22:12;54.92;;;23.77;;
9799;SDS011;4939;52.00085300;4.17406100;2022-08-19T03:24:38;61.47;;;27.10;;
9799;SDS011;4939;52.00085300;4.17406100;2022-08-19T03:27:04;62.28;;;27.00;;
9799;SDS011;4939;52.00085300;4.17406100;2022-08-19T03:29:31;69.25;;;27.50;;
9799;SDS011;4939;52.00085300;4.17406100;2022-08-19T03:31:58;62.03;;;27.65;;
9799;SDS011;4939;52.00085300;4.17406100;2022-08-19T03:34:28;65.90;;;28.15;;
9799;SDS011;4939;52.00085300;4.17406100;2022-08-19T03:36:55;78.15;;;31.05;;
9799;SDS011;4939;52.00085300;4.17406100;2022-08-19T03:39:21;73.47;;;29.98;;
9799;SDS011;4939;52.00085300;4.17406100;2022-08-19T03:41:48;78.50;;;30.52;;
9799;SDS011;4939;52.00085300;4.17406100;2022-08-19T03:44:19;78.85;;;32.83;;
9799;SDS011;4939;52.00085300;4.17406100;2022-08-19T03:46:48;76.55;;;31.55;;
9799;SDS011;4939;52.00085300;4.17406100;2022-08-19T03:49:15;76.45;;;32.50;;
9799;SDS011;4939;52.00085300;4.17406100;2022-08-19T03:51:41;83.70;;;33.10;;
9799;SDS011;4939;52.00085300;4.17406100;2022-08-19T03:54:08;81.03;;;30.88;;
9799;SDS011;4939;52.00085300;4.17406100;2022-08-19T03:56:36;81.38;;;33.25;;
9799;SDS011;4939;52.00085300;4.17406100;2022-08-19T03:59:04;88.47;;;35.10;;
9799;SDS011;4939;52.00085300;4.17406100;2022-08-19T04:01:30;77.53;;;31.17;;
9799;SDS011;4939;52.00085300;4.17406100;2022-08-19T04:03:57;79.32;;;33.15;;
9799;SDS011;4939;52.00085300;4.17406100;2022-08-19T04:06:25;82.28;;;32.88;;
9799;SDS011;4939;52.00085300;4.17406100;2022-08-19T04:08:52;71.22;;;30.83;;
9799;SDS011;4939;52.00085300;4.17406100;2022-08-19T04:11:23;72.32;;;29.70;;
9799;SDS011;4939;52.00085300;4.17406100;2022-08-19T04:13:50;70.07;;;29.20;;
9799;SDS011;4939;52.00085300;4.17406100;2022-08-19T04:16:16;72.57;;;30.70;;
9799;SDS011;4939;52.00085300;4.17406100;2022-08-19T04:18:42;71.60;;;29.05;;
9799;SDS011;4939;52.00085300;4.17406100;2022-08-19T04:21:14;77.38;;;29.52;;
9799;SDS011;4939;52.00085300;4.17406100;2022-08-19T04:23:41;74.55;;;29.52;;
9799;SDS011;4939;52.00085300;4.17406100;2022-08-19T04:26:07;74.78;;;28.20;;
9799;SDS011;4939;52.00085300;4.17406100;2022-08-19T04:28:37;68.45;;;28.80;;
9799;SDS011;4939;52.00085300;4.17406100;2022-08-19T04:31:04;72.95;;;28.17;;
9799;SDS011;4939;52.00085300;4.17406100;2022-08-19T04:33:30;70.05;;;27.33;;
9799;SDS011;4939;52.00085300;4.17406100;2022-08-19T04:35:56;68.60;;;27.70;;
9799;SDS011;4939;52.00085300;4.17406100;2022-08-19T04:38:23;61.67;;;27.50;;
9799;SDS011;4939;52.00085300;4.17406100;2022-08-19T04:40:50;64.95;;;28.45;;
9799;SDS011;4939;52.00085300;4.17406100;2022-08-19T04:43:36;66.28;;;29.58;;
9799;SDS011;4939;52.00085300;4.17406100;2022-08-19T04:46:06;67.72;;;27.85;;
9799;SDS011;4939;52.00085300;4.17406100;2022-08-19T04:48:33;65.88;;;28.95;;
9799;SDS011;4939;52.00085300;4.17406100;2022-08-19T04:50:59;68.30;;;28.67;;
9799;SDS011;4939;52.00085300;4.17406100;2022-08-19T04:53:29;69.32;;;28.60;;
9799;SDS011;4939;52.00085300;4.17406100;2022-08-19T04:58:22;71.13;;;27.58;;
9799;SDS011;4939;52.00085300;4.17406100;2022-08-19T05:00:48;67.22;;;28.13;;
9799;SDS011;4939;52.00085300;4.17406100;2022-08-19T05:03:14;70.95;;;27.40;;
9799;SDS011;4939;52.00085300;4.17406100;2022-08-19T05:05:42;68.85;;;28.25;;
9799;SDS011;4939;52.00085300;4.17406100;2022-08-19T05:08:08;63.38;;;27.60;;
9799;SDS011;4939;52.00085300;4.17406100;2022-08-19T05:10:35;63.25;;;25.48;;
9799;SDS011;4939;52.00085300;4.17406100;2022-08-19T05:13:01;77.18;;;26.92;;
9799;SDS011;4939;52.00085300;4.17406100;2022-08-19T05:15:28;64.05;;;25.48;;
9799;SDS011;4939;52.00085300;4.17406100;2022-08-19T05:17:54;66.82;;;25.20;;
9799;SDS011;4939;52.00085300;4.17406100;2022-08-19T05:20:39;57.10;;;25.63;;
9799;SDS011;4939;52.00085300;4.17406100;2022-08-19T05:23:23;61.95;;;25.35;;
9799;SDS011;4939;52.00085300;4.17406100;2022-08-19T05:25:50;51.20;;;24.38;;
9799;SDS011;4939;52.00085300;4.17406100;2022-08-19T05:28:17;58.33;;;24.23;;
9799;SDS011;4939;52.00085300;4.17406100;2022-08-19T05:30:43;68.28;;;25.27;;
9799;SDS011;4939;52.00085300;4.17406100;2022-08-19T05:33:10;53.17;;;22.80;;
9799;SDS011;4939;52.00085300;4.17406100;2022-08-19T05:35:37;54.42;;;23.52;;
9799;SDS011;4939;52.00085300;4.17406100;2022-08-19T05:38:04;53.65;;;21.48;;
9799;SDS011;4939;52.00085300;4.17406100;2022-08-19T05:40:33;52.35;;;22.55;;
9799;SDS011;4939;52.00085300;4.17406100;2022-08-19T05:42:59;51.85;;;23.15;;
9799;SDS011;4939;52.00085300;4.17406100;2022-08-19T05:45:25;52.60;;;21.65;;
9799;SDS011;4939;52.00085300;4.17406100;2022-08-19T05:47:51;52.80;;;21.02;;
9799;SDS011;4939;52.00085300;4.17406100;2022-08-19T05:50:17;45.90;;;19.85;;
9799;SDS011;4939;52.00085300;4.17406100;2022-08-19T05:52:43;51.63;;;22.55;;
9799;SDS011;4939;52.00085300;4.17406100;2022-08-19T05:55:10;45.42;;;20.02;;
9799;SDS011;4939;52.00085300;4.17406100;2022-08-19T05:57:36;36.35;;;17.20;;
9799;SDS011;4939;52.00085300;4.17406100;2022-08-19T06:00:03;48.88;;;19.25;;
9799;SDS011;4939;52.00085300;4.17406100;2022-08-19T06:02:33;49.53;;;20.17;;
9799;SDS011;4939;52.00085300;4.17406100;2022-08-19T06:05:00;35.50;;;18.38;;
9799;SDS011;4939;52.00085300;4.17406100;2022-08-19T06:07:27;40.65;;;19.77;;
9799;SDS011;4939;52.00085300;4.17406100;2022-08-19T06:09:54;35.33;;;17.83;;
9799;SDS011;4939;52.00085300;4.17406100;2022-08-19T06:12:20;41.03;;;18.02;;
9799;SDS011;4939;52.00085300;4.17406100;2022-08-19T06:14:55;46.83;;;19.50;;
9799;SDS011;4939;52.00085300;4.17406100;2022-08-19T06:17:21;38.65;;;18.65;;
9799;SDS011;4939;52.00085300;4.17406100;2022-08-19T06:19:50;34.30;;;16.73;;
9799;SDS011;4939;52.00085300;4.17406100;2022-08-19T06:22:16;41.72;;;18.20;;
9799;SDS011;4939;52.00085300;4.17406100;2022-08-19T06:24:42;37.40;;;16.58;;
9799;SDS011;4939;52.00085300;4.17406100;2022-08-19T06:27:08;38.65;;;17.13;;
9799;SDS011;4939;52.00085300;4.17406100;2022-08-19T06:29:35;36.25;;;16.60;;
9799;SDS011;4939;52.00085300;4.17406100;2022-08-19T06:32:02;34.42;;;14.65;;
9799;SDS011;4939;52.00085300;4.17406100;2022-08-19T06:34:29;35.40;;;14.43;;
9799;SDS011;4939;52.00085300;4.17406100;2022-08-19T06:36:57;28.13;;;14.02;;
9799;SDS011;4939;52.00085300;4.17406100;2022-08-19T06:39:26;24.13;;;11.37;;
9799;SDS011;4939;52.00085300;4.17406100;2022-08-19T06:41:54;25.58;;;12.73;;
9799;SDS011;4939;52.00085300;4.17406100;2022-08-19T06:44:21;27.17;;;11.07;;
9799;SDS011;4939;52.00085300;4.17406100;2022-08-19T06:46:47;25.77;;;11.50;;
9799;SDS011;4939;52.00085300;4.17406100;2022-08-19T06:49:14;31.23;;;12.98;;
9799;SDS011;4939;52.00085300;4.17406100;2022-08-19T06:51:41;30.90;;;12.27;;
9799;SDS011;4939;52.00085300;4.17406100;2022-08-19T06:54:07;27.98;;;13.18;;
9799;SDS011;4939;52.00085300;4.17406100;2022-08-19T06:56:33;26.15;;;12.02;;
9799;SDS011;4939;52.00085300;4.17406100;2022-08-19T06:59:00;29.42;;;13.13;;
9799;SDS011;4939;52.00085300;4.17406100;2022-08-19T07:01:27;29.52;;;12.85;;
9799;SDS011;4939;52.00085300;4.17406100;2022-08-19T07:03:53;25.25;;;9.02;;
9799;SDS011;4939;52.00085300;4.17406100;2022-08-19T07:06:19;27.15;;;8.75;;
9799;SDS011;4939;52.00085300;4.17406100;2022-08-19T07:08:46;18.40;;;7.00;;
9799;SDS011;4939;52.00085300;4.17406100;2022-08-19T07:11:14;20.15;;;7.50;;
9799;SDS011;4939;52.00085300;4.17406100;2022-08-19T07:13:41;14.73;;;6.50;;
9799;SDS011;4939;52.00085300;4.17406100;2022-08-19T07:16:10;15.50;;;6.40;;
9799;SDS011;4939;52.00085300;4.17406100;2022-08-19T07:18:36;14.90;;;5.88;;
9799;SDS011;4939;52.00085300;4.17406100;2022-08-19T07:21:06;18.02;;;6.78;;
9799;SDS011;4939;52.00085300;4.17406100;2022-08-19T07:23:33;20.70;;;7.13;;
9799;SDS011;4939;52.00085300;4.17406100;2022-08-19T07:26:11;18.80;;;7.47;;
9799;SDS011;4939;52.00085300;4.17406100;2022-08-19T07:28:37;17.08;;;5.72;;
9799;SDS011;4939;52.00085300;4.17406100;2022-08-19T07:31:07;15.43;;;6.05;;
9799;SDS011;4939;52.00085300;4.17406100;2022-08-19T07:33:33;14.82;;;6.00;;
9799;SDS011;4939;52.00085300;4.17406100;2022-08-19T07:36:01;16.98;;;6.85;;
9799;SDS011;4939;52.00085300;4.17406100;2022-08-19T07:38:28;14.10;;;5.80;;
9799;SDS011;4939;52.00085300;4.17406100;2022-08-19T07:40:54;17.77;;;6.57;;
9799;SDS011;4939;52.00085300;4.17406100;2022-08-19T07:43:20;14.55;;;5.63;;
9799;SDS011;4939;52.00085300;4.17406100;2022-08-19T07:45:49;18.05;;;6.07;;
9799;SDS011;4939;52.00085300;4.17406100;2022-08-19T07:48:15;12.52;;;5.95;;
9799;SDS011;4939;52.00085300;4.17406100;2022-08-19T07:50:42;16.02;;;6.35;;
9799;SDS011;4939;52.00085300;4.17406100;2022-08-19T07:53:08;13.70;;;5.85;;
9799;SDS011;4939;52.00085300;4.17406100;2022-08-19T07:55:34;16.92;;;6.68;;
9799;SDS011;4939;52.00085300;4.17406100;2022-08-19T07:58:00;18.58;;;6.00;;
9799;SDS011;4939;52.00085300;4.17406100;2022-08-19T08:00:26;13.80;;;4.95;;
9799;SDS011;4939;52.00085300;4.17406100;2022-08-19T08:02:52;12.57;;;5.38;;
9799;SDS011;4939;52.00085300;4.17406100;2022-08-19T08:05:19;17.63;;;5.85;;
9799;SDS011;4939;52.00085300;4.17406100;2022-08-19T08:08:03;17.67;;;5.57;;
9799;SDS011;4939;52.00085300;4.17406100;2022-08-19T08:10:48;12.02;;;4.80;;
9799;SDS011;4939;52.00085300;4.17406100;2022-08-19T08:13:14;17.38;;;5.38;;
9799;SDS011;4939;52.00085300;4.17406100;2022-08-19T08:15:41;18.50;;;5.07;;
9799;SDS011;4939;52.00085300;4.17406100;2022-08-19T08:18:10;16.00;;;4.97;;
9799;SDS011;4939;52.00085300;4.17406100;2022-08-19T08:20:36;16.08;;;5.35;;
9799;SDS011;4939;52.00085300;4.17406100;2022-08-19T08:23:02;19.50;;;6.45;;
9799;SDS011;4939;52.00085300;4.17406100;2022-08-19T08:25:47;14.90;;;5.50;;
9799;SDS011;4939;52.00085300;4.17406100;2022-08-19T08:28:14;16.08;;;5.45;;
9799;SDS011;4939;52.00085300;4.17406100;2022-08-19T08:30:40;18.80;;;5.13;;
9799;SDS011;4939;52.00085300;4.17406100;2022-08-19T08:33:08;15.02;;;5.22;;
9799;SDS011;4939;52.00085300;4.17406100;2022-08-19T08:35:35;14.32;;;4.85;;
9799;SDS011;4939;52.00085300;4.17406100;2022-08-19T08:38:01;11.55;;;4.88;;
9799;SDS011;4939;52.00085300;4.17406100;2022-08-19T08:43:18;14.38;;;4.43;;
9799;SDS011;4939;52.00085300;4.17406100;2022-08-19T08:45:52;8.57;;;4.05;;
9799;SDS011;4939;52.00085300;4.17406100;2022-08-19T08:48:27;11.68;;;4.38;;
9799;SDS011;4939;52.00085300;4.17406100;2022-08-19T08:50:56;12.38;;;4.43;;
9799;SDS011;4939;52.00085300;4.17406100;2022-08-19T08:53:23;13.88;;;3.80;;
9799;SDS011;4939;52.00085300;4.17406100;2022-08-19T08:55:49;12.75;;;4.05;;
9799;SDS011;4939;52.00085300;4.17406100;2022-08-19T08:58:39;11.30;;;3.85;;
9799;SDS011;4939;52.00085300;4.17406100;2022-08-19T09:01:08;9.40;;;3.67;;
9799;SDS011;4939;52.00085300;4.17406100;2022-08-19T09:03:36;9.25;;;3.22;;
9799;SDS011;4939;52.00085300;4.17406100;2022-08-19T09:06:03;10.65;;;3.60;;
9799;SDS011;4939;52.00085300;4.17406100;2022-08-19T09:11:04;8.63;;;3.58;;
9799;SDS011;4939;52.00085300;4.17406100;2022-08-19T09:16:08;14.25;;;3.67;;
9799;SDS011;4939;52.00085300;4.17406100;2022-08-19T09:18:44;10.75;;;3.45;;
9799;SDS011;4939;52.00085300;4.17406100;2022-08-19T09:21:12;11.27;;;3.30;;
9799;SDS011;4939;52.00085300;4.17406100;2022-08-19T09:23:38;10.02;;;3.20;;
9799;SDS011;4939;52.00085300;4.17406100;2022-08-19T09:26:08;8.10;;;3.55;;
9799;SDS011;4939;52.00085300;4.17406100;2022-08-19T09:31:02;14.32;;;3.45;;
9799;SDS011;4939;52.00085300;4.17406100;2022-08-19T09:33:28;8.82;;;2.88;;
9799;SDS011;4939;52.00085300;4.17406100;2022-08-19T09:36:09;9.45;;;2.90;;
9799;SDS011;4939;52.00085300;4.17406100;2022-08-19T09:38:35;9.98;;;2.88;;
9799;SDS011;4939;52.00085300;4.17406100;2022-08-19T09:41:06;7.88;;;2.72;;
9799;SDS011;4939;52.00085300;4.17406100;2022-08-19T09:43:33;10.55;;;3.45;;
9799;SDS011;4939;52.00085300;4.17406100;2022-08-19T09:46:04;10.13;;;3.10;;
9799;SDS011;4939;52.00085300;4.17406100;2022-08-19T09:48:40;8.15;;;2.97;;
9799;SDS011;4939;52.00085300;4.17406100;2022-08-19T09:51:10;11.40;;;3.05;;
9799;SDS011;4939;52.00085300;4.17406100;2022-08-19T09:53:40;8.82;;;3.65;;
9799;SDS011;4939;52.00085300;4.17406100;2022-08-19T09:56:06;8.10;;;2.80;;
9799;SDS011;4939;52.00085300;4.17406100;2022-08-19T09:58:34;9.95;;;2.80;;
9799;SDS011;4939;52.00085300;4.17406100;2022-08-19T10:01:01;6.97;;;2.25;;
9799;SDS011;4939;52.00085300;4.17406100;2022-08-19T10:03:28;14.38;;;3.10;;
9799;SDS011;4939;52.00085300;4.17406100;2022-08-19T10:05:54;9.77;;;2.90;;
9799;SDS011;4939;52.00085300;4.17406100;2022-08-19T10:08:23;6.85;;;2.90;;
9799;SDS011;4939;52.00085300;4.17406100;2022-08-19T10:10:50;6.03;;;2.57;;
9799;SDS011;4939;52.00085300;4.17406100;2022-08-19T10:13:18;9.27;;;2.83;;
9799;SDS011;4939;52.00085300;4.17406100;2022-08-19T10:15:55;11.05;;;3.13;;
9799;SDS011;4939;52.00085300;4.17406100;2022-08-19T10:18:21;8.88;;;3.15;;
9799;SDS011;4939;52.00085300;4.17406100;2022-08-19T10:20:48;9.25;;;2.47;;
9799;SDS011;4939;52.00085300;4.17406100;2022-08-19T10:23:16;9.93;;;3.20;;
9799;SDS011;4939;52.00085300;4.17406100;2022-08-19T10:25:42;7.43;;;3.00;;
9799;SDS011;4939;52.00085300;4.17406100;2022-08-19T10:28:09;8.50;;;3.40;;
9799;SDS011;4939;52.00085300;4.17406100;2022-08-19T10:30:37;11.48;;;3.38;;
9799;SDS011;4939;52.00085300;4.17406100;2022-08-19T10:33:04;8.68;;;3.60;;
9799;SDS011;4939;52.00085300;4.17406100;2022-08-19T10:35:30;8.00;;;2.92;;
9799;SDS011;4939;52.00085300;4.17406100;2022-08-19T10:37:56;8.60;;;3.10;;
9799;SDS011;4939;52.00085300;4.17406100;2022-08-19T10:40:24;7.90;;;3.10;;
9799;SDS011;4939;52.00085300;4.17406100;2022-08-19T10:42:51;7.70;;;3.42;;
9799;SDS011;4939;52.00085300;4.17406100;2022-08-19T10:45:17;11.55;;;3.25;;
9799;SDS011;4939;52.00085300;4.17406100;2022-08-19T10:47:43;11.10;;;4.35;;
9799;SDS011;4939;52.00085300;4.17406100;2022-08-19T10:50:09;7.63;;;3.58;;
9799;SDS011;4939;52.00085300;4.17406100;2022-08-19T10:52:54;15.43;;;4.28;;
9799;SDS011;4939;52.00085300;4.17406100;2022-08-19T10:55:21;13.57;;;4.15;;
9799;SDS011;4939;52.00085300;4.17406100;2022-08-19T10:58:14;9.93;;;3.80;;
9799;SDS011;4939;52.00085300;4.17406100;2022-08-19T11:00:41;15.30;;;3.83;;
9799;SDS011;4939;52.00085300;4.17406100;2022-08-19T11:03:08;9.65;;;3.53;;
9799;SDS011;4939;52.00085300;4.17406100;2022-08-19T11:05:35;11.75;;;3.85;;
9799;SDS011;4939;52.00085300;4.17406100;2022-08-19T11:08:03;10.38;;;3.95;;
9799;SDS011;4939;52.00085300;4.17406100;2022-08-19T11:10:29;12.13;;;4.40;;
9799;SDS011;4939;52.00085300;4.17406100;2022-08-19T11:12:55;10.73;;;4.53;;
9799;SDS011;4939;52.00085300;4.17406100;2022-08-19T11:15:21;9.60;;;3.88;;
9799;SDS011;4939;52.00085300;4.17406100;2022-08-19T11:17:47;10.63;;;3.72;;
9799;SDS011;4939;52.00085300;4.17406100;2022-08-19T11:20:13;8.50;;;3.33;;
9799;SDS011;4939;52.00085300;4.17406100;2022-08-19T11:22:40;10.10;;;3.75;;
9799;SDS011;4939;52.00085300;4.17406100;2022-08-19T11:25:07;10.50;;;3.72;;
9799;SDS011;4939;52.00085300;4.17406100;2022-08-19T11:27:33;9.75;;;3.70;;
9799;SDS011;4939;52.00085300;4.17406100;2022-08-19T11:30:02;7.78;;;3.50;;
9799;SDS011;4939;52.00085300;4.17406100;2022-08-19T11:32:28;7.72;;;3.88;;
9799;SDS011;4939;52.00085300;4.17406100;2022-08-19T11:34:55;10.00;;;3.10;;
9799;SDS011;4939;52.00085300;4.17406100;2022-08-19T11:37:21;7.07;;;3.30;;
9799;SDS011;4939;52.00085300;4.17406100;2022-08-19T11:39:47;6.88;;;3.45;;
9799;SDS011;4939;52.00085300;4.17406100;2022-08-19T11:42:13;8.98;;;3.90;;
9799;SDS011;4939;52.00085300;4.17406100;2022-08-19T11:44:57;7.97;;;3.47;;
9799;SDS011;4939;52.00085300;4.17406100;2022-08-19T11:47:23;11.35;;;3.47;;
9799;SDS011;4939;52.00085300;4.17406100;2022-08-19T11:49:49;8.77;;;3.30;;
9799;SDS011;4939;52.00085300;4.17406100;2022-08-19T11:52:18;6.65;;;3.30;;
9799;SDS011;4939;52.00085300;4.17406100;2022-08-19T11:54:44;8.18;;;3.30;;
9799;SDS011;4939;52.00085300;4.17406100;2022-08-19T11:57:10;7.13;;;3.10;;
9799;SDS011;4939;52.00085300;4.17406100;2022-08-19T11:59:36;7.32;;;3.22;;
9799;SDS011;4939;52.00085300;4.17406100;2022-08-19T12:02:02;8.50;;;3.20;;
9799;SDS011;4939;52.00085300;4.17406100;2022-08-19T12:04:28;7.10;;;3.13;;
9799;SDS011;4939;52.00085300;4.17406100;2022-08-19T12:07:00;9.60;;;3.40;;
9799;SDS011;4939;52.00085300;4.17406100;2022-08-19T12:09:26;11.00;;;3.40;;
9799;SDS011;4939;52.00085300;4.17406100;2022-08-19T12:11:54;11.48;;;3.55;;
9799;SDS011;4939;52.00085300;4.17406100;2022-08-19T12:14:23;8.70;;;2.78;;
9799;SDS011;4939;52.00085300;4.17406100;2022-08-19T12:16:49;9.20;;;2.72;;
9799;SDS011;4939;52.00085300;4.17406100;2022-08-19T12:19:15;12.32;;;3.45;;
9799;SDS011;4939;52.00085300;4.17406100;2022-08-19T12:21:41;6.28;;;3.05;;
9799;SDS011;4939;52.00085300;4.17406100;2022-08-19T12:24:09;7.28;;;2.97;;
9799;SDS011;4939;52.00085300;4.17406100;2022-08-19T12:26:35;9.15;;;3.15;;
9799;SDS011;4939;52.00085300;4.17406100;2022-08-19T12:29:10;8.60;;;3.10;;
9799;SDS011;4939;52.00085300;4.17406100;2022-08-19T12:31:38;9.18;;;3.05;;
9799;SDS011;4939;52.00085300;4.17406100;2022-08-19T12:34:06;7.32;;;2.78;;
9799;SDS011;4939;52.00085300;4.17406100;2022-08-19T12:36:32;8.35;;;2.65;;
9799;SDS011;4939;52.00085300;4.17406100;2022-08-19T12:38:59;6.82;;;2.72;;
9799;SDS011;4939;52.00085300;4.17406100;2022-08-19T12:41:26;7.82;;;2.90;;
9799;SDS011;4939;52.00085300;4.17406100;2022-08-19T12:43:52;9.40;;;2.50;;
9799;SDS011;4939;52.00085300;4.17406100;2022-08-19T12:46:19;8.38;;;2.83;;
9799;SDS011;4939;52.00085300;4.17406100;2022-08-19T12:48:45;5.95;;;2.95;;
9799;SDS011;4939;52.00085300;4.17406100;2022-08-19T12:51:13;9.80;;;2.90;;
9799;SDS011;4939;52.00085300;4.17406100;2022-08-19T12:53:39;6.82;;;2.70;;
9799;SDS011;4939;52.00085300;4.17406100;2022-08-19T12:56:06;9.93;;;3.17;;
9799;SDS011;4939;52.00085300;4.17406100;2022-08-19T12:58:33;6.00;;;2.53;;
9799;SDS011;4939;52.00085300;4.17406100;2022-08-19T13:00:59;5.85;;;2.30;;
9799;SDS011;4939;52.00085300;4.17406100;2022-08-19T13:03:31;6.30;;;2.30;;
9799;SDS011;4939;52.00085300;4.17406100;2022-08-19T13:05:57;5.97;;;2.83;;
9799;SDS011;4939;52.00085300;4.17406100;2022-08-19T13:08:24;5.28;;;2.45;;
9799;SDS011;4939;52.00085300;4.17406100;2022-08-19T13:10:53;7.40;;;3.10;;
9799;SDS011;4939;52.00085300;4.17406100;2022-08-19T13:13:19;7.00;;;2.75;;
9799;SDS011;4939;52.00085300;4.17406100;2022-08-19T13:15:45;8.90;;;3.15;;